Time;durP1;ratioP1;P1;durP2;ratioP2;P2;SDS_P1;SDS_P2;PMS_P1;PMS_P2;Temp;Humidity;BMP_temperature;BMP_pressure;BME280_temperature;BME280_humidity;BME280_pressure;Samples;Min_cycle;Max_cycle;Signal;HPM_P1;HPM_P2
2021/12/29 00:01:41;;;;;;;103.35;21.23;;;7.90;99.90;;;;;;5007188;28;20473;-80
2021/12/29 00:04:07;;;;;;;57.85;17.30;;;7.90;99.90;;;;;;5013354;28;20045;-80
2021/12/29 00:06:33;;;;;;;49.00;17.13;;;7.90;99.90;;;;;;5003965;28;20037;-80
2021/12/29 00:08:59;;;;;;;63.83;18.08;;;7.90;99.90;;;;;;5011750;28;20454;-80
2021/12/29 00:11:26;;;;;;;69.43;18.35;;;7.90;99.90;;;;;;5009832;28;20442;-80
2021/12/29 00:13:52;;;;;;;92.10;21.25;;;7.90;99.90;;;;;;5005963;28;20048;-80
2021/12/29 00:16:18;;;;;;;72.55;17.83;;;7.90;99.90;;;;;;5017125;28;20037;-80
2021/12/29 00:18:44;;;;;;;64.82;17.90;;;7.90;99.90;;;;;;5004491;28;20400;-80
2021/12/29 00:21:10;;;;;;;92.43;21.05;;;7.80;99.90;;;;;;5004094;28;20132;-80
2021/12/29 00:23:39;;;;;;;60.13;17.08;;;7.80;99.90;;;;;;5007914;28;20068;-80
2021/12/29 00:26:05;;;;;;;99.60;20.83;;;7.90;99.90;;;;;;5016025;28;20175;-80
2021/12/29 00:28:31;;;;;;;55.25;17.00;;;7.80;99.90;;;;;;5010533;28;20037;-80
2021/12/29 00:30:56;;;;;;;57.65;17.20;;;7.90;99.90;;;;;;5009683;28;20571;-80
2021/12/29 00:33:22;;;;;;;45.78;15.43;;;7.90;99.90;;;;;;5020947;28;20077;-80
2021/12/29 00:35:48;;;;;;;65.18;18.33;;;7.90;99.90;;;;;;5005548;28;20124;-80
2021/12/29 00:38:14;;;;;;;90.85;19.67;;;7.80;99.90;;;;;;4997389;28;20069;-80
2021/12/29 00:40:41;;;;;;;53.80;16.55;;;7.80;99.90;;;;;;5006524;28;20032;-80
2021/12/29 00:43:07;;;;;;;41.55;15.30;;;7.80;99.90;;;;;;5004462;28;20033;-80
2021/12/29 00:45:36;;;;;;;46.33;15.73;;;7.80;99.90;;;;;;5010600;28;20043;-80
2021/12/29 00:48:10;;;;;;;58.80;16.35;;;7.80;99.90;;;;;;5041513;28;20128;-80
2021/12/29 00:50:36;;;;;;;47.13;15.15;;;7.90;99.90;;;;;;5018886;28;20044;-80
2021/12/29 00:53:02;;;;;;;45.47;15.20;;;7.80;99.90;;;;;;5015357;28;20060;-80
2021/12/29 00:55:28;;;;;;;40.92;15.13;;;7.80;99.90;;;;;;4994603;28;20060;-80
2021/12/29 00:57:54;;;;;;;54.38;15.48;;;7.80;99.90;;;;;;5017883;28;20041;-80
2021/12/29 01:00:23;;;;;;;43.28;14.35;;;7.90;99.90;;;;;;5025626;28;20362;-80
2021/12/29 01:02:49;;;;;;;42.53;14.13;;;7.90;99.90;;;;;;5042522;28;20051;-80
2021/12/29 01:05:17;;;;;;;50.10;14.38;;;7.80;99.90;;;;;;5021477;28;20067;-80
2021/12/29 01:07:44;;;;;;;44.90;14.70;;;7.90;99.90;;;;;;5008633;28;20041;-80
2021/12/29 01:10:11;;;;;;;45.47;14.23;;;7.90;99.90;;;;;;5016571;28;20045;-80
2021/12/29 01:12:51;;;;;;;47.70;13.90;;;8.00;99.90;;;;;;5019605;28;20452;-80
2021/12/29 01:15:24;;;;;;;60.47;15.77;;;8.00;99.90;;;;;;5002602;28;20029;-80
2021/12/29 01:17:50;;;;;;;68.68;17.65;;;8.00;99.90;;;;;;4996856;28;20030;-80
2021/12/29 01:20:16;;;;;;;81.72;18.10;;;8.00;99.90;;;;;;5015494;28;20121;-80
2021/12/29 01:22:42;;;;;;;79.68;18.10;;;8.00;99.90;;;;;;5020193;28;20043;-80
2021/12/29 01:25:08;;;;;;;76.40;16.95;;;8.00;99.90;;;;;;5016161;28;20079;-80
2021/12/29 01:27:34;;;;;;;85.75;17.60;;;8.10;99.90;;;;;;5022363;28;20123;-80
2021/12/29 01:30:08;;;;;;;79.97;18.05;;;8.10;99.90;;;;;;5010740;28;20128;-80
2021/12/29 01:32:34;;;;;;;78.45;16.85;;;8.10;99.90;;;;;;5038861;28;20131;-80
2021/12/29 01:35:00;;;;;;;84.32;17.40;;;8.10;99.90;;;;;;5016797;28;20148;-80
2021/12/29 01:37:25;;;;;;;88.47;19.25;;;8.20;99.90;;;;;;5013289;28;20046;-80
2021/12/29 01:39:51;;;;;;;112.53;20.20;;;8.10;99.90;;;;;;5017750;28;20037;-80
2021/12/29 01:42:17;;;;;;;121.65;21.10;;;8.10;99.90;;;;;;5004350;28;20461;-80
2021/12/29 01:44:43;;;;;;;95.95;20.13;;;8.10;99.90;;;;;;5022354;28;20851;-80
2021/12/29 01:47:09;;;;;;;119.38;20.70;;;8.10;99.90;;;;;;5002792;28;20401;-80
2021/12/29 01:49:34;;;;;;;143.48;22.73;;;8.20;99.90;;;;;;5010474;28;20110;-80
2021/12/29 01:52:10;;;;;;;114.07;20.05;;;8.20;99.90;;;;;;5009259;28;20036;-80
2021/12/29 01:54:36;;;;;;;113.20;19.65;;;8.20;99.90;;;;;;5019057;28;20044;-80
2021/12/29 01:57:05;;;;;;;112.18;20.73;;;8.20;99.90;;;;;;5018270;28;20426;-80
2021/12/29 01:59:30;;;;;;;119.78;21.70;;;8.20;99.90;;;;;;5018369;28;20167;-80
2021/12/29 02:01:56;;;;;;;126.65;22.05;;;8.20;99.90;;;;;;5018847;28;20037;-80
2021/12/29 02:04:22;;;;;;;113.90;22.05;;;8.20;99.90;;;;;;5014392;28;20045;-80
2021/12/29 02:06:49;;;;;;;158.45;27.20;;;8.20;99.90;;;;;;5020562;28;20431;-80
2021/12/29 02:09:15;;;;;;;115.88;21.70;;;8.20;99.90;;;;;;5016958;28;20037;-80
2021/12/29 02:11:42;;;;;;;120.57;22.52;;;8.30;99.90;;;;;;4996824;28;20039;-80
2021/12/29 02:14:09;;;;;;;167.27;24.65;;;8.30;99.90;;;;;;5011506;28;20040;-80
2021/12/29 02:16:35;;;;;;;105.65;20.23;;;8.30;99.90;;;;;;5017488;28;20037;-80
2021/12/29 02:19:06;;;;;;;117.85;21.42;;;8.30;99.90;;;;;;5013408;28;20589;-79
2021/12/29 02:21:32;;;;;;;111.18;21.45;;;8.40;99.90;;;;;;5005302;28;20476;-80
2021/12/29 02:26:33;;;;;;;109.75;21.02;;;8.40;99.90;;;;;;5035371;28;20613;-80
2021/12/29 02:29:00;;;;;;;110.40;20.67;;;8.40;99.90;;;;;;5020539;28;20237;-80
2021/12/29 02:31:27;;;;;;;86.47;19.23;;;8.40;99.90;;;;;;5005509;28;20650;-80
2021/12/29 02:33:54;;;;;;;97.65;20.13;;;8.40;99.90;;;;;;4991418;28;20146;-80
2021/12/29 02:36:20;;;;;;;77.15;17.67;;;8.50;99.90;;;;;;4981789;28;20053;-80
2021/12/29 02:38:51;;;;;;;68.43;16.98;;;8.50;99.90;;;;;;4989942;28;20026;-80
2021/12/29 02:41:17;;;;;;;57.10;14.98;;;8.50;99.90;;;;;;4983595;28;20070;-80
2021/12/29 02:43:44;;;;;;;69.90;16.67;;;8.50;99.90;;;;;;5008528;28;20045;-80
2021/12/29 02:46:14;;;;;;;61.22;15.65;;;8.50;99.90;;;;;;4995625;28;20052;-80
2021/12/29 02:48:52;;;;;;;51.15;14.50;;;8.50;99.90;;;;;;5001006;28;20374;-80
2021/12/29 02:51:18;;;;;;;43.17;12.13;;;8.50;99.90;;;;;;5016031;28;20068;-80
2021/12/29 02:53:46;;;;;;;47.72;13.57;;;8.50;99.90;;;;;;4998708;28;20528;-80
2021/12/29 02:56:12;;;;;;;53.55;13.20;;;8.60;99.90;;;;;;4994308;28;20065;-80
2021/12/29 02:58:37;;;;;;;62.50;14.43;;;8.60;99.90;;;;;;5016727;28;20074;-80
2021/12/29 03:01:07;;;;;;;54.58;13.90;;;8.50;99.90;;;;;;4997138;28;20500;-80
2021/12/29 03:03:36;;;;;;;54.78;13.07;;;8.60;99.90;;;;;;5005671;28;20119;-80
2021/12/29 03:06:03;;;;;;;45.95;12.38;;;8.60;99.90;;;;;;4986562;28;20046;-80
2021/12/29 03:08:28;;;;;;;47.53;13.35;;;8.50;99.90;;;;;;4987239;28;20095;-80
2021/12/29 03:10:54;;;;;;;51.65;13.45;;;8.60;99.90;;;;;;4996376;28;20068;-80
2021/12/29 03:13:22;;;;;;;45.72;12.25;;;8.60;99.90;;;;;;4982154;28;20038;-80
2021/12/29 03:15:48;;;;;;;49.60;13.73;;;8.60;99.90;;;;;;5004275;28;20057;-80
2021/12/29 03:18:15;;;;;;;49.70;14.98;;;8.60;99.90;;;;;;5004244;28;20048;-80
2021/12/29 03:20:41;;;;;;;50.70;12.65;;;8.70;99.90;;;;;;4995303;28;20045;-80
2021/12/29 03:23:06;;;;;;;51.75;13.23;;;8.70;99.90;;;;;;4997770;28;20516;-80
2021/12/29 03:25:32;;;;;;;59.28;14.95;;;8.70;99.90;;;;;;5002770;28;20063;-80
2021/12/29 03:28:00;;;;;;;54.13;14.23;;;8.70;99.90;;;;;;5000386;28;20368;-80
2021/12/29 03:30:31;;;;;;;50.33;14.85;;;8.70;99.90;;;;;;5007931;28;20159;-80
2021/12/29 03:33:03;;;;;;;64.95;15.25;;;8.70;99.90;;;;;;4996876;28;20396;-80
2021/12/29 03:35:53;;;;;;;61.47;16.67;;;8.70;99.90;;;;;;5016735;28;20570;-80
2021/12/29 03:38:22;;;;;;;63.83;17.00;;;8.80;99.90;;;;;;5002958;28;20048;-80
2021/12/29 03:40:48;;;;;;;58.58;16.83;;;8.80;99.90;;;;;;5019406;28;20457;-80
2021/12/29 03:43:15;;;;;;;63.20;17.73;;;8.80;99.90;;;;;;5015371;28;20033;-80
2021/12/29 03:45:44;;;;;;;58.58;18.70;;;8.80;99.90;;;;;;5002779;28;20067;-80
2021/12/29 03:48:11;;;;;;;68.95;19.40;;;8.80;99.90;;;;;;5023771;28;20057;-80
2021/12/29 03:50:38;;;;;;;65.57;18.95;;;8.80;99.90;;;;;;5013488;28;20096;-80
2021/12/29 03:53:04;;;;;;;61.45;19.58;;;8.80;99.90;;;;;;4994978;28;20489;-80
2021/12/29 03:55:30;;;;;;;86.30;21.92;;;8.80;99.90;;;;;;5018953;28;20041;-80
2021/12/29 03:57:56;;;;;;;77.93;20.80;;;8.80;99.90;;;;;;5006196;28;20389;-80
2021/12/29 04:00:22;;;;;;;74.78;21.80;;;8.80;99.90;;;;;;5013262;28;20037;-80
2021/12/29 04:02:48;;;;;;;76.85;23.10;;;8.80;99.90;;;;;;5021377;28;20044;-80
2021/12/29 04:05:17;;;;;;;74.57;21.55;;;8.80;99.90;;;;;;4997918;28;20041;-80
2021/12/29 04:07:43;;;;;;;73.75;22.30;;;8.80;99.90;;;;;;5003597;28;20493;-80
2021/12/29 04:10:10;;;;;;;95.28;24.67;;;8.80;99.90;;;;;;5016465;28;20049;-80
2021/12/29 04:12:38;;;;;;;90.28;23.48;;;8.80;99.90;;;;;;5023394;28;20044;-80
2021/12/29 04:15:05;;;;;;;78.07;23.20;;;8.80;99.90;;;;;;4997383;28;20038;-80
2021/12/29 04:17:37;;;;;;;77.60;22.58;;;8.80;99.90;;;;;;5025242;28;20069;-80
2021/12/29 04:22:53;;;;;;;85.93;23.45;;;8.90;99.90;;;;;;5011796;28;20044;-80
2021/12/29 04:25:24;;;;;;;62.92;21.25;;;8.90;99.90;;;;;;4999284;28;20045;-80
2021/12/29 04:27:51;;;;;;;78.32;22.42;;;8.90;99.90;;;;;;5005463;28;20395;-80
2021/12/29 04:30:17;;;;;;;75.28;22.33;;;8.90;99.90;;;;;;5015608;28;20041;-80
2021/12/29 04:32:43;;;;;;;79.22;23.30;;;8.90;99.90;;;;;;5015241;28;20072;-80
2021/12/29 04:35:09;;;;;;;84.22;23.15;;;8.90;99.90;;;;;;5022602;28;20044;-80
2021/12/29 04:37:37;;;;;;;76.05;21.90;;;8.90;99.90;;;;;;5024390;28;20047;-80
2021/12/29 04:40:05;;;;;;;72.25;21.95;;;8.90;99.90;;;;;;5012873;28;20033;-80
2021/12/29 04:42:30;;;;;;;59.00;22.23;;;8.90;99.90;;;;;;4999748;28;20346;-80
2021/12/29 04:44:56;;;;;;;81.65;23.10;;;8.90;99.90;;;;;;5004048;28;20175;-80
2021/12/29 04:47:28;;;;;;;77.25;22.60;;;8.90;99.90;;;;;;5000313;28;20052;-80
2021/12/29 04:49:54;;;;;;;62.17;22.30;;;8.90;99.90;;;;;;5013657;28;20140;-80
2021/12/29 04:52:20;;;;;;;63.53;22.45;;;8.90;99.90;;;;;;5035834;28;20084;-80
2021/12/29 04:54:45;;;;;;;61.40;21.40;;;8.90;99.90;;;;;;4996130;28;20063;-80
2021/12/29 04:57:11;;;;;;;70.07;21.95;;;8.90;99.90;;;;;;5011779;28;20423;-80
2021/12/29 04:59:37;;;;;;;58.30;21.50;;;8.90;99.90;;;;;;5011872;28;20377;-79
2021/12/29 05:02:03;;;;;;;57.75;22.23;;;9.00;99.90;;;;;;5024385;28;20045;-80
2021/12/29 05:04:34;;;;;;;53.00;20.58;;;9.00;99.90;;;;;;4998390;28;20037;-80
2021/12/29 05:09:46;;;;;;;53.90;20.88;;;9.00;99.90;;;;;;5011009;28;20076;-80
2021/12/29 05:12:12;;;;;;;56.58;21.55;;;9.10;99.90;;;;;;5015987;28;20065;-80
2021/12/29 05:14:38;;;;;;;51.20;20.85;;;9.00;99.90;;;;;;5012554;28;20310;-80
2021/12/29 05:17:05;;;;;;;44.45;20.30;;;9.00;99.90;;;;;;5021070;28;20287;-80
2021/12/29 05:19:32;;;;;;;52.13;22.73;;;9.00;99.90;;;;;;5019993;28;20045;-80
2021/12/29 05:21:58;;;;;;;49.47;21.00;;;9.00;99.90;;;;;;5016132;28;20516;-80
2021/12/29 05:24:24;;;;;;;48.05;20.17;;;9.10;99.90;;;;;;5013362;28;20044;-80
2021/12/29 05:26:50;;;;;;;54.95;22.45;;;9.00;99.90;;;;;;5012590;28;20516;-80
2021/12/29 05:29:15;;;;;;;60.53;22.58;;;9.00;99.90;;;;;;5001289;28;20037;-80
2021/12/29 05:31:41;;;;;;;52.63;20.52;;;9.00;99.90;;;;;;5038122;28;20067;-80
2021/12/29 05:34:07;;;;;;;59.30;22.23;;;9.00;99.90;;;;;;5008659;28;20057;-80
2021/12/29 05:36:33;;;;;;;56.60;22.00;;;9.00;99.90;;;;;;5011687;28;20037;-80
2021/12/29 05:38:59;;;;;;;55.30;23.73;;;9.10;99.90;;;;;;5021177;28;20470;-80
2021/12/29 05:41:24;;;;;;;49.95;21.80;;;9.10;99.90;;;;;;5012069;28;20045;-80
2021/12/29 05:43:50;;;;;;;53.17;22.75;;;9.00;99.90;;;;;;5017350;28;20037;-80
2021/12/29 05:46:16;;;;;;;48.70;21.55;;;9.10;99.90;;;;;;5006110;28;20040;-80
2021/12/29 05:48:42;;;;;;;54.85;23.02;;;9.10;99.90;;;;;;5005199;28;20033;-80
2021/12/29 05:51:11;;;;;;;54.85;22.33;;;9.10;99.90;;;;;;4992933;28;20903;-80
2021/12/29 05:53:38;;;;;;;54.85;22.08;;;9.00;99.90;;;;;;5014284;28;20042;-80
2021/12/29 05:56:03;;;;;;;53.55;22.13;;;9.00;99.90;;;;;;5018798;28;20493;-80
2021/12/29 05:58:30;;;;;;;47.75;20.73;;;9.10;99.90;;;;;;5015425;28;20037;-80
2021/12/29 06:00:55;;;;;;;49.03;22.38;;;9.00;99.90;;;;;;5004774;28;20468;-80
2021/12/29 06:03:21;;;;;;;51.75;21.33;;;9.00;99.90;;;;;;5021860;28;20052;-80
2021/12/29 06:05:47;;;;;;;53.75;20.95;;;9.00;99.90;;;;;;5021986;28;20051;-80
2021/12/29 06:08:12;;;;;;;46.30;19.63;;;9.00;99.90;;;;;;5011607;28;20061;-80
2021/12/29 06:10:38;;;;;;;51.85;21.27;;;9.00;99.90;;;;;;5010469;28;20107;-80
2021/12/29 06:13:04;;;;;;;55.00;21.58;;;9.00;99.90;;;;;;5008272;28;20044;-80
2021/12/29 06:15:30;;;;;;;67.22;23.15;;;9.00;99.90;;;;;;5016461;28;20184;-80
2021/12/29 06:17:56;;;;;;;49.45;21.08;;;9.00;99.90;;;;;;5019685;28;20060;-80
2021/12/29 06:20:22;;;;;;;47.75;20.55;;;9.00;99.90;;;;;;5006487;28;20093;-80
2021/12/29 06:22:47;;;;;;;51.40;20.85;;;9.00;99.90;;;;;;5023309;28;20025;-80
2021/12/29 06:25:16;;;;;;;56.13;21.38;;;9.00;99.90;;;;;;5025692;28;20617;-80
2021/12/29 06:27:42;;;;;;;58.88;21.58;;;9.00;99.90;;;;;;5008877;28;20079;-80
2021/12/29 06:30:11;;;;;;;48.05;19.70;;;9.00;99.90;;;;;;5024900;28;20055;-80
2021/12/29 06:32:38;;;;;;;51.58;19.70;;;9.00;99.90;;;;;;5011963;28;20084;-80
2021/12/29 06:35:06;;;;;;;52.03;19.00;;;9.00;99.90;;;;;;5019696;28;20042;-80
2021/12/29 06:37:33;;;;;;;55.53;19.45;;;9.00;99.90;;;;;;5012085;28;20037;-80
2021/12/29 06:39:59;;;;;;;51.95;19.27;;;9.00;99.90;;;;;;5018257;28;20037;-80
2021/12/29 06:42:25;;;;;;;60.20;21.33;;;9.00;99.90;;;;;;5015427;28;20048;-80
2021/12/29 06:44:50;;;;;;;71.22;21.48;;;9.00;99.90;;;;;;4996979;28;20037;-80
2021/12/29 06:47:16;;;;;;;45.50;17.35;;;9.00;99.90;;;;;;5026280;28;20031;-80
2021/12/29 06:49:42;;;;;;;60.10;20.20;;;9.00;99.90;;;;;;5026016;28;20041;-80
2021/12/29 06:52:09;;;;;;;66.43;20.13;;;9.00;99.90;;;;;;4999051;28;20488;-80
2021/12/29 06:54:36;;;;;;;54.90;18.20;;;9.00;99.90;;;;;;5014240;28;20094;-80
2021/12/29 06:57:05;;;;;;;68.78;19.83;;;9.00;99.90;;;;;;5016862;28;20076;-80
2021/12/29 06:59:31;;;;;;;63.22;19.23;;;9.00;99.90;;;;;;5022666;28;20028;-80
2021/12/29 07:01:56;;;;;;;89.35;21.60;;;9.00;99.90;;;;;;5019447;28;20083;-80
2021/12/29 07:04:23;;;;;;;73.20;20.42;;;9.00;99.90;;;;;;5014415;28;20048;-80
2021/12/29 07:06:52;;;;;;;63.35;19.75;;;9.00;99.90;;;;;;5023770;28;20084;-80
2021/12/29 07:09:19;;;;;;;70.15;19.30;;;9.10;99.90;;;;;;5019082;28;20419;-80
2021/12/29 07:11:45;;;;;;;69.38;18.15;;;9.10;99.90;;;;;;5000304;28;20569;-80
2021/12/29 07:14:11;;;;;;;69.85;19.55;;;9.00;99.90;;;;;;5002939;28;20119;-80
2021/12/29 07:16:38;;;;;;;55.53;18.83;;;9.10;99.90;;;;;;5008647;28;20052;-80
2021/12/29 07:19:05;;;;;;;72.97;20.20;;;9.10;99.90;;;;;;5020720;28;20047;-80
2021/12/29 07:21:31;;;;;;;67.18;18.35;;;9.00;99.90;;;;;;5017989;28;20029;-80
2021/12/29 07:24:00;;;;;;;73.97;19.73;;;9.10;99.90;;;;;;5020850;28;20037;-80
2021/12/29 07:26:26;;;;;;;71.20;18.52;;;9.10;99.90;;;;;;5002485;28;20906;-80
2021/12/29 07:28:52;;;;;;;68.63;19.88;;;9.10;99.90;;;;;;5018169;28;20407;-79
2021/12/29 07:31:19;;;;;;;76.85;20.33;;;9.00;99.90;;;;;;5007036;28;20037;-80
2021/12/29 07:33:45;;;;;;;68.85;20.35;;;9.10;99.90;;;;;;5045285;28;20136;-80
2021/12/29 07:36:11;;;;;;;80.20;21.05;;;9.10;99.90;;;;;;5027150;28;20413;-80
2021/12/29 07:38:41;;;;;;;84.53;20.88;;;9.10;99.90;;;;;;5016121;28;20522;-80
2021/12/29 07:41:09;;;;;;;73.18;19.42;;;9.00;99.90;;;;;;5015727;28;20084;-80
2021/12/29 07:43:36;;;;;;;62.65;18.90;;;9.00;99.90;;;;;;5016820;28;20113;-79
2021/12/29 07:46:06;;;;;;;66.07;19.30;;;9.00;99.90;;;;;;5022205;28;20127;-80
2021/12/29 07:48:33;;;;;;;62.85;18.98;;;9.00;99.90;;;;;;5005633;28;20518;-80
2021/12/29 07:51:05;;;;;;;68.60;18.67;;;9.00;99.90;;;;;;5015180;28;20357;-80
2021/12/29 07:53:31;;;;;;;70.13;18.10;;;9.00;99.90;;;;;;5010637;28;20041;-79
2021/12/29 07:55:57;;;;;;;59.80;17.42;;;9.00;99.90;;;;;;5005791;28;20037;-80
2021/12/29 07:58:22;;;;;;;52.78;16.67;;;9.10;99.90;;;;;;5016479;28;20421;-80
2021/12/29 08:00:49;;;;;;;49.83;15.57;;;9.00;99.90;;;;;;5001077;28;20167;-80
2021/12/29 08:03:15;;;;;;;46.30;16.42;;;9.10;99.90;;;;;;5014855;28;20110;-80
2021/12/29 08:05:42;;;;;;;47.58;16.00;;;9.10;99.90;;;;;;5010872;28;20127;-80
2021/12/29 08:08:10;;;;;;;45.47;14.75;;;9.10;99.90;;;;;;5006158;28;20396;-80
2021/12/29 08:10:39;;;;;;;57.03;15.85;;;9.10;99.90;;;;;;5004736;28;20141;-80
2021/12/29 08:13:06;;;;;;;51.15;15.30;;;9.10;99.90;;;;;;5011191;28;20531;-80
2021/12/29 08:15:33;;;;;;;48.25;16.23;;;9.10;99.90;;;;;;4995815;28;20048;-80
2021/12/29 08:18:04;;;;;;;52.67;15.60;;;9.10;99.90;;;;;;5007643;28;20088;-80
2021/12/29 08:20:32;;;;;;;45.55;15.68;;;9.10;99.90;;;;;;5013783;28;20575;-80
2021/12/29 08:22:59;;;;;;;59.80;17.02;;;9.10;99.90;;;;;;5017270;28;20136;-80
2021/12/29 08:25:25;;;;;;;64.60;17.17;;;9.20;99.90;;;;;;5022137;28;20040;-80
2021/12/29 08:27:51;;;;;;;58.10;18.00;;;9.10;99.90;;;;;;5023279;28;20051;-80
2021/12/29 08:30:17;;;;;;;59.45;18.23;;;9.20;99.90;;;;;;5017145;28;20040;-80
2021/12/29 08:32:43;;;;;;;71.22;17.02;;;9.20;99.90;;;;;;5028159;28;20061;-80
2021/12/29 08:35:10;;;;;;;68.78;18.60;;;9.10;99.90;;;;;;5010081;28;20335;-80
2021/12/29 08:37:36;;;;;;;67.35;17.75;;;9.20;99.90;;;;;;4995162;28;20061;-80
2021/12/29 08:40:07;;;;;;;77.65;18.67;;;9.10;99.90;;;;;;5003362;28;20505;-80
2021/12/29 08:42:33;;;;;;;69.72;18.05;;;9.20;99.90;;;;;;5003942;28;20041;-80
2021/12/29 08:44:59;;;;;;;73.20;18.70;;;9.20;99.90;;;;;;4996507;28;20037;-80
2021/12/29 08:47:25;;;;;;;84.90;20.33;;;9.30;99.90;;;;;;5018630;28;20033;-80
2021/12/29 08:49:50;;;;;;;79.60;19.52;;;9.20;99.90;;;;;;5005932;28;20029;-80
2021/12/29 08:52:16;;;;;;;78.72;18.48;;;9.30;99.90;;;;;;5005104;28;20163;-80
2021/12/29 08:54:42;;;;;;;76.88;18.05;;;9.30;99.90;;;;;;5026776;28;20029;-80
2021/12/29 08:57:08;;;;;;;87.60;18.95;;;9.30;99.90;;;;;;5023445;28;20111;-80
2021/12/29 08:59:34;;;;;;;77.13;18.48;;;9.30;99.90;;;;;;5003705;28;20045;-80
2021/12/29 09:01:59;;;;;;;71.68;16.98;;;9.30;99.90;;;;;;4995076;28;20114;-80
2021/12/29 09:04:25;;;;;;;78.00;18.67;;;9.30;99.90;;;;;;5001330;28;20041;-80
2021/12/29 09:06:52;;;;;;;70.22;18.05;;;9.30;99.90;;;;;;5005915;28;20041;-80
2021/12/29 09:09:19;;;;;;;81.88;18.73;;;9.30;99.90;;;;;;5003248;28;20077;-80
2021/12/29 09:11:47;;;;;;;79.20;18.67;;;9.40;99.90;;;;;;5004783;28;20534;-80
2021/12/29 09:14:12;;;;;;;66.55;17.15;;;9.30;99.90;;;;;;4997624;28;20047;-80
2021/12/29 09:16:38;;;;;;;62.42;16.77;;;9.40;99.90;;;;;;5013468;28;20049;-80
2021/12/29 09:19:10;;;;;;;52.25;16.92;;;9.40;99.90;;;;;;5014397;28;20025;-80
2021/12/29 09:21:38;;;;;;;58.08;17.00;;;9.40;99.90;;;;;;5004547;28;20118;-80
2021/12/29 09:24:05;;;;;;;56.08;15.60;;;9.40;99.90;;;;;;5020931;28;20267;-80
2021/12/29 09:26:30;;;;;;;46.92;16.13;;;9.50;99.90;;;;;;5002783;28;20555;-80
2021/12/29 09:28:58;;;;;;;55.90;16.48;;;9.40;99.90;;;;;;4997859;28;20060;-80
2021/12/29 09:31:24;;;;;;;49.58;15.23;;;9.50;99.90;;;;;;5003747;28;20045;-80
2021/12/29 09:33:51;;;;;;;58.55;15.02;;;9.50;99.90;;;;;;5023985;28;20064;-80
2021/12/29 09:36:18;;;;;;;51.33;14.27;;;9.50;99.90;;;;;;5006526;28;20155;-80
2021/12/29 09:38:44;;;;;;;64.60;15.27;;;9.60;99.90;;;;;;5021486;28;20045;-80
2021/12/29 09:41:15;;;;;;;78.18;16.05;;;9.60;99.90;;;;;;5039544;28;20067;-80
2021/12/29 09:43:44;;;;;;;83.63;17.70;;;9.60;99.90;;;;;;5019342;28;20061;-80
2021/12/29 09:46:10;;;;;;;138.65;19.60;;;9.60;99.90;;;;;;4996618;28;20036;-80
2021/12/29 09:48:37;;;;;;;114.47;18.92;;;9.60;99.90;;;;;;5015758;28;20040;-80
2021/12/29 09:51:05;;;;;;;84.40;16.67;;;9.70;99.90;;;;;;5023094;28;20926;-80
2021/12/29 09:53:32;;;;;;;74.93;16.17;;;9.70;99.90;;;;;;4990147;28;20044;-80
2021/12/29 09:55:57;;;;;;;62.67;15.15;;;9.70;99.90;;;;;;5012205;28;20045;-80
2021/12/29 09:58:27;;;;;;;94.78;18.67;;;9.70;99.90;;;;;;5002749;28;20041;-80
2021/12/29 10:00:56;;;;;;;65.53;16.02;;;9.70;99.90;;;;;;5026510;28;20061;-80
2021/12/29 10:03:24;;;;;;;56.67;15.85;;;9.70;99.90;;;;;;5015003;28;20125;-80
2021/12/29 10:05:53;;;;;;;54.83;14.82;;;9.80;99.90;;;;;;5022694;28;20135;-80
2021/12/29 10:08:31;;;;;;;52.03;16.20;;;9.80;99.90;;;;;;5004565;28;20040;-80
2021/12/29 10:10:59;;;;;;;45.83;14.95;;;9.80;99.90;;;;;;5019627;28;20159;-80
2021/12/29 10:13:29;;;;;;;39.88;12.95;;;9.80;99.90;;;;;;5008530;28;20074;-80
2021/12/29 10:16:04;;;;;;;30.77;12.10;;;9.80;99.90;;;;;;5019780;28;20720;-80
2021/12/29 10:18:31;;;;;;;32.00;12.55;;;9.90;99.90;;;;;;5014910;28;20041;-80
2021/12/29 10:21:05;;;;;;;28.52;11.82;;;9.90;99.90;;;;;;5008308;28;20038;-80
2021/12/29 10:23:38;;;;;;;26.17;10.27;;;10.00;99.90;;;;;;5010016;28;20424;-80
2021/12/29 10:26:09;;;;;;;30.50;11.05;;;10.10;99.90;;;;;;5022156;28;20052;-80
2021/12/29 10:28:39;;;;;;;27.75;10.30;;;10.10;99.90;;;;;;5011586;28;20037;-80
2021/12/29 10:31:13;;;;;;;25.67;9.32;;;10.10;99.90;;;;;;5016831;28;20071;-80
2021/12/29 10:33:50;;;;;;;19.63;9.70;;;10.10;99.90;;;;;;5021626;28;20064;-80
2021/12/29 10:36:23;;;;;;;19.00;8.73;;;10.00;99.90;;;;;;5010611;28;20049;-80
2021/12/29 10:39:08;;;;;;;19.52;9.65;;;10.00;99.90;;;;;;5010341;28;20072;-80
2021/12/29 10:42:13;;;;;;;20.88;9.70;;;10.00;99.90;;;;;;5039091;28;20581;-80
2021/12/29 10:44:45;;;;;;;15.95;8.93;;;10.00;99.90;;;;;;5010844;28;20064;-80
2021/12/29 10:47:22;;;;;;;19.73;9.55;;;10.00;99.90;;;;;;5031140;28;20109;-80
2021/12/29 10:49:54;;;;;;;20.23;9.50;;;10.00;99.90;;;;;;5018562;28;20480;-80
2021/12/29 10:52:32;;;;;;;19.35;9.77;;;10.00;99.90;;;;;;4989015;28;20029;-80
2021/12/29 10:54:57;;;;;;;20.52;9.95;;;10.00;99.90;;;;;;5009878;28;20040;-80
2021/12/29 10:57:23;;;;;;;20.88;8.93;;;10.00;99.90;;;;;;5014797;28;20480;-80
2021/12/29 10:59:55;;;;;;;21.77;10.63;;;10.00;99.90;;;;;;5004564;28;20041;-80
2021/12/29 11:02:38;;;;;;;19.15;9.48;;;10.00;99.90;;;;;;5038669;28;20041;-80
2021/12/29 11:05:08;;;;;;;22.05;10.50;;;9.90;99.90;;;;;;5013170;28;20042;-80
2021/12/29 11:07:36;;;;;;;22.10;10.07;;;9.90;99.90;;;;;;5016992;28;20041;-80
2021/12/29 11:10:16;;;;;;;21.05;10.18;;;9.90;99.90;;;;;;5010182;28;20401;-80
2021/12/29 11:12:55;;;;;;;22.50;10.23;;;9.80;99.90;;;;;;5002403;28;20034;-80
2021/12/29 11:15:29;;;;;;;21.30;10.40;;;9.80;99.90;;;;;;5042479;28;20130;-80
2021/12/29 11:18:03;;;;;;;25.65;9.95;;;9.80;99.90;;;;;;5010454;28;20041;-80
2021/12/29 11:20:31;;;;;;;21.55;10.15;;;9.80;99.90;;;;;;5013306;28;20033;-80
2021/12/29 11:23:14;;;;;;;22.02;10.07;;;9.80;99.90;;;;;;5034638;28;20099;-80
2021/12/29 11:25:43;;;;;;;21.60;9.85;;;9.80;99.90;;;;;;5016802;28;20076;-80
2021/12/29 11:28:29;;;;;;;26.30;11.40;;;9.80;99.90;;;;;;5021715;28;20048;-80
2021/12/29 11:30:57;;;;;;;31.00;12.07;;;9.80;99.90;;;;;;5005882;28;20803;-80
2021/12/29 11:33:24;;;;;;;29.77;12.07;;;9.80;99.90;;;;;;5016799;28;20077;-80
2021/12/29 11:35:53;;;;;;;26.73;10.77;;;9.80;99.90;;;;;;5009001;28;20044;-80
2021/12/29 11:38:22;;;;;;;25.80;11.45;;;9.80;99.90;;;;;;4997277;28;20077;-80
2021/12/29 11:40:53;;;;;;;30.02;11.38;;;9.80;99.90;;;;;;5007981;28;20034;-80
2021/12/29 11:43:20;;;;;;;24.52;10.70;;;9.80;99.90;;;;;;4999788;28;20036;-80
2021/12/29 11:45:48;;;;;;;24.80;10.35;;;9.90;99.90;;;;;;5039531;28;20116;-80
2021/12/29 11:48:17;;;;;;;32.00;12.43;;;9.90;99.90;;;;;;5019618;28;20040;-80
2021/12/29 11:50:59;;;;;;;27.17;11.48;;;10.00;99.90;;;;;;5010649;28;20032;-80
2021/12/29 11:53:31;;;;;;;25.70;10.75;;;10.00;99.90;;;;;;5016762;28;20079;-80
2021/12/29 11:56:08;;;;;;;29.05;10.90;;;10.00;99.90;;;;;;5016980;28;20696;-80
2021/12/29 11:58:37;;;;;;;25.42;11.13;;;10.00;99.90;;;;;;5012276;28;20037;-80
2021/12/29 12:01:10;;;;;;;32.92;11.98;;;10.10;99.90;;;;;;4999299;28;20124;-80
2021/12/29 12:03:43;;;;;;;29.40;10.95;;;10.20;99.90;;;;;;5000730;28;20524;-80
2021/12/29 12:06:24;;;;;;;30.45;11.98;;;10.30;99.90;;;;;;5036542;28;20374;-80
2021/12/29 12:09:11;;;;;;;27.70;11.68;;;10.30;99.90;;;;;;5006211;28;20566;-80
2021/12/29 12:11:41;;;;;;;30.90;10.85;;;10.30;99.90;;;;;;5005405;28;20235;-80
2021/12/29 12:14:48;;;;;;;29.15;10.20;;;10.30;99.90;;;;;;5022028;28;20096;-80
2021/12/29 12:17:15;;;;;;;27.98;9.98;;;10.30;99.90;;;;;;5006308;28;20082;-80
2021/12/29 12:19:42;;;;;;;20.98;9.63;;;10.20;99.90;;;;;;5006389;28;20041;-80
2021/12/29 12:22:15;;;;;;;27.48;10.07;;;10.20;99.90;;;;;;5011725;28;20562;-80
2021/12/29 12:24:56;;;;;;;21.45;8.82;;;10.20;99.90;;;;;;5023071;28;20400;-80
2021/12/29 12:27:37;;;;;;;20.33;8.30;;;10.10;99.90;;;;;;5020258;28;20045;-79
2021/12/29 12:30:11;;;;;;;20.10;8.55;;;10.20;99.90;;;;;;5026198;28;20072;-80
2021/12/29 12:33:07;;;;;;;21.85;8.35;;;10.00;99.90;;;;;;5016721;28;20223;-79
2021/12/29 12:35:34;;;;;;;27.58;8.95;;;10.10;99.90;;;;;;5007147;28;20052;-80
2021/12/29 12:38:15;;;;;;;20.52;7.93;;;10.00;99.90;;;;;;5007422;28;20455;-79
2021/12/29 12:40:43;;;;;;;21.88;8.95;;;9.90;99.90;;;;;;5010241;28;20037;-80
2021/12/29 12:43:14;;;;;;;24.52;8.35;;;9.80;99.90;;;;;;5012151;28;20025;-79
2021/12/29 12:45:44;;;;;;;23.35;7.80;;;9.80;99.90;;;;;;5006011;28;20128;-80
2021/12/29 12:48:13;;;;;;;19.42;7.50;;;9.80;99.90;;;;;;5021685;28;20368;-80
2021/12/29 12:50:41;;;;;;;18.95;7.38;;;9.80;99.90;;;;;;5015898;28;20040;-80